Time;durP1;ratioP1;P1;durP2;ratioP2;P2;SDS_P1;SDS_P2;PMS_P1;PMS_P2;Temp;Humidity;BMP_temperature;BMP_pressure;BME280_temperature;BME280_humidity;BME280_pressure;Samples;Min_cycle;Max_cycle;Signal;HPM_P1;HPM_P2
2023/03/11 00:01:30;;;;;;;1.53;1.10;;;2.80;99.90;;;;;;4994835;28;20030;-83
2023/03/11 00:03:57;;;;;;;1.20;1.10;;;2.80;99.90;;;;;;4994630;28;20035;-84
2023/03/11 00:06:23;;;;;;;1.70;1.10;;;2.70;99.90;;;;;;4994670;28;20038;-83
2023/03/11 00:08:49;;;;;;;1.50;1.10;;;2.70;99.90;;;;;;4994337;28;20365;-83
2023/03/11 00:11:15;;;;;;;1.30;1.20;;;2.60;99.90;;;;;;4994523;28;20029;-83
2023/03/11 00:13:40;;;;;;;1.60;1.00;;;2.50;99.90;;;;;;4994179;28;20027;-83
2023/03/11 00:16:06;;;;;;;1.37;1.10;;;2.50;99.90;;;;;;4994874;28;20025;-83
2023/03/11 00:18:32;;;;;;;2.77;1.03;;;2.40;99.90;;;;;;4994354;28;20436;-83
2023/03/11 00:20:59;;;;;;;1.80;1.40;;;2.30;99.90;;;;;;4992800;28;20042;-84
2023/03/11 00:23:25;;;;;;;1.20;1.10;;;2.30;99.90;;;;;;4994365;28;20042;-83
2023/03/11 00:25:51;;;;;;;1.87;0.90;;;2.30;99.90;;;;;;4994306;28;20070;-83
2023/03/11 00:28:17;;;;;;;1.60;1.10;;;2.30;99.90;;;;;;4994335;28;20057;-84
2023/03/11 00:30:44;;;;;;;1.40;1.17;;;2.20;99.90;;;;;;4994044;28;20065;-83
2023/03/11 00:33:12;;;;;;;1.20;1.10;;;2.10;99.90;;;;;;4994553;28;20084;-83
2023/03/11 00:35:38;;;;;;;1.30;1.10;;;2.10;99.90;;;;;;4992864;28;20111;-83
2023/03/11 00:38:06;;;;;;;3.27;1.30;;;2.10;99.90;;;;;;4994124;28;20520;-83
2023/03/11 00:40:33;;;;;;;1.70;1.00;;;2.00;99.90;;;;;;4992982;28;20476;-82
2023/03/11 00:42:59;;;;;;;1.80;1.20;;;2.10;99.90;;;;;;4993924;28;20045;-82
2023/03/11 00:45:26;;;;;;;1.57;1.20;;;2.10;99.90;;;;;;4993724;28;20105;-82
2023/03/11 00:47:52;;;;;;;1.87;1.00;;;2.00;99.90;;;;;;4994202;28;20432;-82
2023/03/11 00:50:22;;;;;;;1.57;1.10;;;2.10;99.90;;;;;;4993905;28;20069;-82
2023/03/11 00:52:49;;;;;;;1.60;1.20;;;2.00;99.90;;;;;;4993667;28;20440;-82
2023/03/11 00:55:18;;;;;;;1.63;1.00;;;2.00;99.90;;;;;;4993741;28;20046;-82
2023/03/11 00:57:44;;;;;;;1.77;1.10;;;2.00;99.90;;;;;;4993519;28;20397;-82
2023/03/11 01:00:19;;;;;;;1.17;1.03;;;2.10;99.90;;;;;;4993277;28;20050;-81
2023/03/11 01:02:45;;;;;;;1.43;1.03;;;2.10;99.90;;;;;;4991913;28;20064;-82
2023/03/11 01:05:11;;;;;;;2.30;1.20;;;2.00;99.90;;;;;;4993286;28;20505;-82
2023/03/11 01:07:37;;;;;;;1.43;1.03;;;2.00;99.90;;;;;;4992292;28;20038;-82
2023/03/11 01:10:04;;;;;;;1.60;1.27;;;2.00;99.90;;;;;;4993632;28;20027;-82
2023/03/11 01:12:29;;;;;;;1.93;1.30;;;2.00;99.90;;;;;;4993113;28;20033;-82
2023/03/11 01:14:55;;;;;;;1.63;1.20;;;2.00;99.90;;;;;;4993367;28;20054;-82
2023/03/11 01:17:21;;;;;;;3.20;1.50;;;2.00;99.90;;;;;;4993126;28;20479;-82
2023/03/11 01:19:47;;;;;;;1.67;1.40;;;1.90;99.90;;;;;;4993361;28;20482;-82
2023/03/11 01:22:13;;;;;;;2.00;1.20;;;1.90;99.90;;;;;;4993445;28;20049;-82
2023/03/11 01:24:38;;;;;;;1.30;1.20;;;1.80;99.90;;;;;;4991657;28;20039;-82
2023/03/11 01:27:04;;;;;;;1.70;1.20;;;1.80;99.90;;;;;;4992873;28;20031;-82
2023/03/11 01:32:52;;;;;;;2.33;1.10;;;1.70;99.90;;;;;;4993217;28;20061;-82
2023/03/11 01:35:20;;;;;;;1.70;1.00;;;1.70;99.90;;;;;;4993167;28;20154;-82
2023/03/11 01:37:46;;;;;;;1.40;1.10;;;1.80;99.90;;;;;;4992788;28;20449;-82
2023/03/11 01:40:24;;;;;;;1.27;1.10;;;1.70;99.90;;;;;;4992854;28;20037;-82
2023/03/11 01:42:50;;;;;;;1.73;1.27;;;1.70;99.90;;;;;;4993127;28;20033;-82
2023/03/11 01:45:37;;;;;;;1.40;1.30;;;1.70;99.90;;;;;;4992881;28;20030;-82
2023/03/11 01:48:03;;;;;;;1.27;1.10;;;1.70;99.90;;;;;;4993134;28;20026;-82
2023/03/11 01:50:34;;;;;;;1.60;1.20;;;1.60;99.90;;;;;;4992544;28;20038;-82
2023/03/11 01:53:01;;;;;;;2.03;1.20;;;1.60;99.90;;;;;;4992642;28;20030;-82
2023/03/11 01:55:27;;;;;;;2.37;1.10;;;1.70;99.90;;;;;;4992493;28;20046;-82
2023/03/11 01:57:54;;;;;;;1.83;1.00;;;1.60;99.90;;;;;;4992406;28;20535;-82
2023/03/11 02:00:19;;;;;;;1.67;1.00;;;1.60;99.90;;;;;;4992512;28;20109;-82
2023/03/11 02:02:53;;;;;;;1.53;1.20;;;1.70;99.90;;;;;;4992598;28;20197;-82
2023/03/11 02:05:23;;;;;;;1.07;0.97;;;1.60;99.90;;;;;;4991064;28;20046;-82
2023/03/11 02:07:50;;;;;;;1.40;1.20;;;1.60;99.90;;;;;;4992463;28;20022;-82
2023/03/11 02:10:16;;;;;;;1.37;0.90;;;1.50;99.90;;;;;;4992479;28;20462;-82
2023/03/11 02:12:44;;;;;;;1.40;1.00;;;1.50;99.90;;;;;;4992603;28;20026;-82
2023/03/11 02:15:10;;;;;;;1.30;1.00;;;1.40;99.90;;;;;;4992398;28;20047;-82
2023/03/11 02:17:38;;;;;;;1.63;1.10;;;1.40;99.90;;;;;;4992227;28;20054;-82
2023/03/11 02:20:21;;;;;;;1.20;0.93;;;1.40;99.90;;;;;;4992392;28;20113;-82
2023/03/11 02:22:48;;;;;;;1.00;0.90;;;1.40;99.90;;;;;;4992289;28;20074;-82
2023/03/11 02:25:47;;;;;;;1.90;1.00;;;1.40;99.90;;;;;;4990887;28;20081;-82
2023/03/11 02:28:14;;;;;;;1.13;1.03;;;1.40;99.90;;;;;;4992657;28;20022;-82
2023/03/11 02:30:42;;;;;;;1.00;0.83;;;1.40;99.90;;;;;;4992496;28;20026;-82
2023/03/11 02:33:09;;;;;;;1.60;1.10;;;1.40;99.90;;;;;;4992105;28;20114;-82
2023/03/11 02:35:34;;;;;;;1.00;0.90;;;1.40;99.90;;;;;;4992264;28;20026;-82
2023/03/11 02:38:02;;;;;;;2.53;0.83;;;1.30;99.90;;;;;;4992327;28;20085;-82
2023/03/11 02:40:37;;;;;;;1.73;1.10;;;1.30;99.90;;;;;;4992631;28;20038;-82
2023/03/11 02:43:06;;;;;;;1.33;0.93;;;1.40;99.90;;;;;;4992852;28;20049;-82
2023/03/11 02:45:33;;;;;;;1.20;0.87;;;1.40;99.90;;;;;;4992082;28;20157;-82
2023/03/11 02:47:59;;;;;;;3.57;1.00;;;1.30;99.90;;;;;;4992198;28;20465;-82
2023/03/11 02:50:28;;;;;;;1.40;1.00;;;1.30;99.90;;;;;;4990857;28;20469;-82
2023/03/11 02:52:53;;;;;;;2.03;1.07;;;1.30;99.90;;;;;;4992400;28;20034;-82
2023/03/11 02:55:19;;;;;;;1.27;1.07;;;1.20;99.90;;;;;;4992013;28;20030;-82
2023/03/11 02:57:46;;;;;;;2.30;1.10;;;1.20;99.90;;;;;;4991746;28;20027;-82
2023/03/11 03:00:15;;;;;;;1.70;1.10;;;1.20;99.90;;;;;;4992076;28;20029;-82
2023/03/11 03:02:42;;;;;;;1.33;1.10;;;1.20;99.90;;;;;;4991992;28;20420;-82
2023/03/11 03:05:09;;;;;;;2.00;1.33;;;1.10;99.90;;;;;;4995507;28;20050;-82
2023/03/11 03:07:35;;;;;;;1.50;1.07;;;1.10;99.90;;;;;;4995623;28;20078;-82
2023/03/11 03:10:01;;;;;;;2.10;1.23;;;1.10;99.90;;;;;;4995813;28;20057;-82
2023/03/11 03:12:26;;;;;;;1.83;1.23;;;1.10;99.90;;;;;;4996150;28;20057;-82
2023/03/11 03:14:52;;;;;;;1.80;1.20;;;1.00;99.90;;;;;;4995392;28;20489;-82
2023/03/11 03:17:17;;;;;;;2.83;1.30;;;1.00;99.90;;;;;;4995521;28;20026;-82
2023/03/11 03:19:43;;;;;;;1.90;1.20;;;1.00;99.90;;;;;;4995609;28;20026;-82
2023/03/11 03:22:08;;;;;;;1.87;1.10;;;1.00;99.90;;;;;;4995194;28;20092;-82
2023/03/11 03:24:34;;;;;;;1.17;1.07;;;1.10;99.90;;;;;;4995459;28;20041;-82
2023/03/11 03:26:59;;;;;;;2.17;1.20;;;1.10;99.90;;;;;;4995299;28;20018;-82
2023/03/11 03:29:25;;;;;;;1.93;1.17;;;1.00;99.90;;;;;;4995438;28;20473;-82
2023/03/11 03:31:51;;;;;;;1.77;1.10;;;1.00;99.90;;;;;;4995271;28;20085;-82
2023/03/11 03:34:16;;;;;;;1.40;0.93;;;1.00;99.90;;;;;;4995860;28;20063;-82
2023/03/11 03:36:42;;;;;;;2.63;1.30;;;1.00;99.90;;;;;;4994963;28;20113;-82
2023/03/11 03:39:07;;;;;;;4.17;1.20;;;1.00;99.90;;;;;;4995036;28;20023;-82
2023/03/11 03:41:33;;;;;;;1.60;1.07;;;0.90;99.90;;;;;;4995327;28;20014;-82
2023/03/11 03:43:59;;;;;;;2.80;1.23;;;1.00;99.90;;;;;;4994701;28;20315;-82
2023/03/11 03:49:46;;;;;;;1.33;1.10;;;0.90;99.90;;;;;;4994871;28;20022;-82
2023/03/11 03:52:11;;;;;;;1.30;1.10;;;0.90;99.90;;;;;;4994869;28;20034;-82
2023/03/11 03:54:37;;;;;;;1.87;1.30;;;0.90;99.90;;;;;;4994797;28;20027;-82
2023/03/11 03:57:04;;;;;;;1.83;1.40;;;0.80;99.90;;;;;;4994982;28;20126;-82
2023/03/11 03:59:30;;;;;;;1.70;1.10;;;0.80;99.90;;;;;;4994747;28;20378;-82
2023/03/11 04:01:55;;;;;;;1.30;1.10;;;0.70;99.90;;;;;;4994831;28;20029;-82
2023/03/11 04:04:21;;;;;;;3.77;1.20;;;0.70;99.90;;;;;;4994619;28;20038;-82
2023/03/11 04:06:47;;;;;;;1.87;1.30;;;0.70;99.90;;;;;;4995098;28;20026;-82
2023/03/11 04:09:13;;;;;;;2.33;1.20;;;0.60;99.90;;;;;;4995147;28;20038;-82
2023/03/11 04:11:38;;;;;;;1.47;1.10;;;0.60;99.90;;;;;;4994571;28;20038;-82
2023/03/11 04:14:05;;;;;;;1.63;1.23;;;0.60;99.90;;;;;;4994145;28;20116;-82
2023/03/11 04:16:31;;;;;;;2.83;1.10;;;0.50;99.90;;;;;;4994471;28;20053;-82
2023/03/11 04:18:57;;;;;;;2.33;1.17;;;0.50;99.90;;;;;;4994473;28;20023;-82
2023/03/11 04:21:23;;;;;;;2.30;1.30;;;0.50;99.90;;;;;;4994060;28;20040;-82
2023/03/11 04:23:48;;;;;;;2.83;1.30;;;0.50;99.90;;;;;;4994090;28;20037;-82
2023/03/11 04:26:14;;;;;;;2.13;1.23;;;0.50;99.90;;;;;;4994638;28;20037;-82
2023/03/11 04:28:39;;;;;;;1.53;1.20;;;0.50;99.90;;;;;;4994358;28;20434;-82
2023/03/11 04:34:27;;;;;;;1.33;1.20;;;0.50;99.90;;;;;;4993931;28;20033;-82
2023/03/11 04:36:53;;;;;;;2.70;1.30;;;0.50;99.90;;;;;;4992426;28;20026;-82
2023/03/11 04:39:19;;;;;;;3.60;1.20;;;0.50;99.90;;;;;;4993831;28;20058;-82
2023/03/11 04:41:44;;;;;;;2.57;1.10;;;0.50;99.90;;;;;;4993782;28;20068;-82
2023/03/11 04:44:10;;;;;;;2.30;1.30;;;0.50;99.90;;;;;;4993845;28;20054;-82
2023/03/11 04:46:36;;;;;;;2.87;1.30;;;0.50;99.90;;;;;;4994034;28;20345;-82
2023/03/11 04:49:01;;;;;;;2.20;1.50;;;0.50;99.90;;;;;;4993983;28;20030;-82
2023/03/11 04:51:27;;;;;;;1.77;1.23;;;0.50;99.90;;;;;;4993886;28;20026;-82
2023/03/11 04:53:52;;;;;;;2.20;1.23;;;0.50;99.90;;;;;;4993786;28;20027;-82
2023/03/11 04:56:19;;;;;;;1.73;1.30;;;0.60;99.90;;;;;;4993601;28;20085;-82
2023/03/11 04:58:45;;;;;;;2.83;1.60;;;0.60;99.90;;;;;;4994027;28;20070;-82
2023/03/11 05:01:10;;;;;;;2.70;1.37;;;0.60;99.90;;;;;;4993181;28;20036;-81
2023/03/11 05:03:36;;;;;;;2.07;1.30;;;0.60;99.90;;;;;;4993240;28;20116;-82
2023/03/11 05:06:01;;;;;;;4.43;1.30;;;0.70;99.90;;;;;;4993127;28;20034;-82
2023/03/11 05:08:27;;;;;;;1.87;1.10;;;0.70;99.90;;;;;;4991846;28;20030;-82
2023/03/11 05:10:53;;;;;;;2.07;1.73;;;0.80;99.90;;;;;;4993408;28;20034;-82
2023/03/11 05:13:19;;;;;;;1.80;1.33;;;0.80;99.90;;;;;;4993364;28;20405;-82
2023/03/11 05:15:46;;;;;;;1.53;1.40;;;0.80;99.90;;;;;;4992970;28;20046;-82
2023/03/11 05:18:11;;;;;;;2.50;1.40;;;0.90;99.90;;;;;;4993096;28;20085;-82
2023/03/11 05:20:37;;;;;;;1.63;1.23;;;0.80;99.90;;;;;;4993015;28;20030;-82
2023/03/11 05:23:03;;;;;;;1.50;1.10;;;0.80;99.90;;;;;;4993110;28;20457;-82
2023/03/11 05:25:28;;;;;;;4.03;1.33;;;0.80;99.90;;;;;;4993370;28;20034;-82
2023/03/11 05:27:54;;;;;;;2.90;1.30;;;0.90;99.90;;;;;;4992983;28;20026;-82
2023/03/11 05:30:20;;;;;;;3.77;1.40;;;0.80;99.90;;;;;;4993121;28;20030;-82
2023/03/11 05:32:45;;;;;;;2.13;1.27;;;0.80;99.90;;;;;;4992634;28;20034;-82
2023/03/11 05:35:11;;;;;;;2.97;1.40;;;0.80;99.90;;;;;;4992775;28;20042;-82
2023/03/11 05:37:38;;;;;;;4.97;1.77;;;0.90;99.90;;;;;;4992501;28;20102;-82
2023/03/11 05:40:06;;;;;;;2.63;1.40;;;0.90;99.90;;;;;;4992809;28;20077;-82
2023/03/11 05:42:32;;;;;;;1.67;1.30;;;0.90;99.90;;;;;;4992427;28;20041;-82
2023/03/11 05:44:58;;;;;;;1.80;1.10;;;0.90;99.90;;;;;;4992616;28;20484;-82
2023/03/11 05:47:23;;;;;;;2.90;1.47;;;0.90;99.90;;;;;;4991623;28;20097;-81
2023/03/11 05:49:49;;;;;;;1.80;1.20;;;0.90;99.90;;;;;;4992865;28;20442;-82
2023/03/11 05:52:15;;;;;;;1.60;1.13;;;0.90;99.90;;;;;;4992741;28;20080;-82
2023/03/11 05:54:40;;;;;;;3.67;1.40;;;0.90;99.90;;;;;;4992643;28;20374;-82
2023/03/11 05:57:06;;;;;;;1.93;0.90;;;0.80;99.90;;;;;;4992506;28;20031;-82
2023/03/11 05:59:34;;;;;;;3.00;1.30;;;0.80;99.90;;;;;;4992617;28;20117;-82
2023/03/11 06:01:59;;;;;;;3.17;1.07;;;0.80;99.90;;;;;;4992406;28;20061;-82
2023/03/11 06:04:25;;;;;;;2.70;1.00;;;0.80;99.90;;;;;;4992972;28;20046;-82
2023/03/11 06:06:51;;;;;;;1.80;1.10;;;0.70;99.90;;;;;;4992220;28;20080;-82
2023/03/11 06:09:16;;;;;;;2.57;1.20;;;0.70;99.90;;;;;;4992620;28;20031;-82
2023/03/11 06:11:42;;;;;;;2.87;1.27;;;0.70;99.90;;;;;;4992462;28;20492;-82
2023/03/11 06:14:13;;;;;;;3.73;1.03;;;0.70;99.90;;;;;;4992081;28;20366;-81
2023/03/11 06:16:39;;;;;;;2.37;1.13;;;0.60;99.90;;;;;;4992958;28;20034;-82
2023/03/11 06:19:04;;;;;;;3.00;1.50;;;0.70;99.90;;;;;;4992512;28;20152;-82
2023/03/11 06:21:30;;;;;;;4.33;1.20;;;0.70;99.90;;;;;;4992115;28;20026;-82
2023/03/11 06:23:56;;;;;;;4.10;1.10;;;0.70;99.90;;;;;;4992626;28;20042;-82
2023/03/11 06:26:22;;;;;;;1.30;1.00;;;0.70;99.90;;;;;;4992606;28;20452;-82
2023/03/11 06:28:49;;;;;;;2.13;1.07;;;0.60;99.90;;;;;;4992940;28;20066;-82
2023/03/11 06:31:18;;;;;;;3.43;1.30;;;0.70;99.90;;;;;;4992579;28;20034;-82
2023/03/11 06:33:44;;;;;;;2.00;1.00;;;0.70;99.90;;;;;;4992157;28;20037;-82
2023/03/11 06:36:13;;;;;;;3.23;1.30;;;0.70;99.90;;;;;;4990844;28;20042;-82
2023/03/11 06:38:38;;;;;;;2.93;1.10;;;0.60;99.90;;;;;;4993698;28;20064;-82
2023/03/11 06:41:05;;;;;;;2.47;1.30;;;0.60;99.90;;;;;;4995949;28;20034;-82
2023/03/11 06:43:32;;;;;;;2.10;1.40;;;0.60;99.90;;;;;;4995776;28;20141;-82
2023/03/11 06:45:59;;;;;;;2.30;1.30;;;0.70;99.90;;;;;;4996109;28;20088;-82
2023/03/11 06:48:25;;;;;;;4.57;1.50;;;0.70;99.90;;;;;;4995792;28;20481;-81
2023/03/11 06:50:59;;;;;;;3.97;1.07;;;0.80;99.90;;;;;;4995976;28;20122;-81
2023/03/11 06:53:25;;;;;;;1.87;1.30;;;0.80;99.90;;;;;;4995481;28;20037;-79
2023/03/11 06:56:02;;;;;;;1.33;1.20;;;0.80;99.90;;;;;;4993827;28;20034;-80
2023/03/11 07:01:49;;;;;;;4.90;1.27;;;0.80;99.90;;;;;;4994237;28;20511;-81
2023/03/11 07:04:15;;;;;;;1.97;1.30;;;0.70;99.90;;;;;;4994784;28;20117;-80
2023/03/11 07:06:42;;;;;;;2.77;1.37;;;0.70;99.90;;;;;;4994863;28;20092;-80
2023/03/11 07:09:08;;;;;;;1.87;1.07;;;0.70;99.90;;;;;;4994949;28;20329;-81
2023/03/11 07:11:33;;;;;;;3.83;1.47;;;0.60;99.90;;;;;;4995338;28;20442;-81
2023/03/11 07:13:59;;;;;;;4.23;1.60;;;0.70;99.90;;;;;;4994773;28;20073;-81
2023/03/11 07:16:27;;;;;;;2.50;1.40;;;0.60;99.90;;;;;;4994567;28;20034;-81
2023/03/11 07:21:41;;;;;;;3.20;1.60;;;0.70;99.90;;;;;;5150487;22;21327;-81
2023/03/11 07:24:06;;;;;;;2.50;1.57;;;0.70;99.90;;;;;;5026821;28;20145;-81
2023/03/11 07:26:34;;;;;;;2.23;1.70;;;0.70;99.90;;;;;;5022135;28;20044;-81
2023/03/11 07:29:00;;;;;;;3.00;1.53;;;0.80;99.90;;;;;;5020089;28;20036;-81
2023/03/11 07:31:29;;;;;;;3.33;1.60;;;0.80;99.90;;;;;;5016659;28;20285;-80
2023/03/11 07:33:58;;;;;;;3.30;1.50;;;0.80;99.90;;;;;;4998452;28;21356;-80
2023/03/11 07:36:25;;;;;;;4.17;1.47;;;0.80;99.90;;;;;;5000096;28;20845;-80
2023/03/11 07:39:14;;;;;;;2.80;1.50;;;0.80;99.90;;;;;;5002272;28;20071;-80
2023/03/11 07:41:40;;;;;;;4.60;1.50;;;1.00;99.90;;;;;;5009203;28;20045;-81
2023/03/11 07:44:05;;;;;;;6.90;2.00;;;1.10;99.90;;;;;;5007451;28;20063;-85
2023/03/11 07:46:32;;;;;;;1.93;1.43;;;1.10;99.90;;;;;;5001652;28;21038;-87
2023/03/11 07:48:57;;;;;;;2.33;1.20;;;1.20;99.90;;;;;;4992113;28;20045;-81
2023/03/11 07:51:28;;;;;;;6.47;1.80;;;1.20;99.90;;;;;;4990468;28;20034;-86
2023/03/11 07:53:55;;;;;;;2.57;1.33;;;1.30;99.90;;;;;;5007875;28;20039;-82
2023/03/11 07:56:25;;;;;;;2.73;1.40;;;1.30;99.90;;;;;;5005188;28;20072;-84
2023/03/11 07:58:51;;;;;;;3.17;1.57;;;1.40;99.90;;;;;;5019916;28;20025;-83
2023/03/11 08:01:19;;;;;;;3.20;1.40;;;1.50;99.90;;;;;;5028970;28;20057;-80
2023/03/11 08:03:48;;;;;;;2.73;1.40;;;1.50;99.90;;;;;;5022663;28;20045;-86
2023/03/11 08:06:15;;;;;;;2.97;1.57;;;1.60;99.90;;;;;;5026081;28;20057;-78
2023/03/11 08:08:42;;;;;;;5.33;1.47;;;1.80;99.90;;;;;;5021653;28;20042;-84
2023/03/11 08:11:09;;;;;;;2.50;1.50;;;1.90;99.90;;;;;;5021047;28;20021;-93
2023/03/11 08:13:34;;;;;;;4.20;1.30;;;1.90;99.90;;;;;;5029759;28;20131;-86
2023/03/11 08:16:08;;;;;;;2.33;1.40;;;2.00;99.90;;;;;;5025189;28;20057;-86
2023/03/11 08:18:35;;;;;;;2.37;1.40;;;2.00;99.90;;;;;;5029765;28;20025;-85
2023/03/11 08:21:05;;;;;;;3.73;1.50;;;2.00;99.90;;;;;;5028099;28;20500;-83
2023/03/11 08:23:31;;;;;;;5.00;1.40;;;1.90;99.90;;;;;;5033681;28;20064;-88
2023/03/11 08:25:56;;;;;;;4.57;1.30;;;2.00;99.90;;;;;;5027605;28;20037;-85
2023/03/11 08:28:22;;;;;;;2.20;1.30;;;2.00;99.90;;;;;;5029606;28;20422;-85
2023/03/11 08:30:48;;;;;;;3.63;1.30;;;2.10;99.90;;;;;;5019927;28;20041;-83
2023/03/11 08:33:13;;;;;;;4.73;1.40;;;2.20;99.90;;;;;;5015684;28;20043;-83
2023/03/11 08:35:39;;;;;;;2.17;1.30;;;2.40;99.90;;;;;;5019364;28;20116;-83
2023/03/11 08:38:04;;;;;;;2.80;1.13;;;2.60;99.90;;;;;;5024491;28;20033;-83
2023/03/11 08:40:30;;;;;;;2.93;1.30;;;2.90;99.90;;;;;;5023592;28;20049;-84
2023/03/11 08:42:56;;;;;;;2.00;1.20;;;3.00;99.90;;;;;;5030199;28;20026;-89
2023/03/11 08:45:22;;;;;;;3.20;1.73;;;3.00;99.90;;;;;;5032328;28;20057;-96
2023/03/11 08:47:48;;;;;;;3.17;1.30;;;3.00;99.90;;;;;;5031115;28;20030;-92
2023/03/11 08:50:16;;;;;;;3.53;1.13;;;3.00;99.90;;;;;;5034795;28;20021;-94
2023/03/11 08:52:42;;;;;;;2.87;1.20;;;3.00;99.90;;;;;;5035498;28;20100;-96
2023/03/11 08:55:11;;;;;;;2.03;1.20;;;3.00;99.90;;;;;;5033590;28;20057;-96
2023/03/11 08:57:37;;;;;;;3.37;1.20;;;3.00;99.90;;;;;;5032027;28;20052;-93
2023/03/11 09:00:06;;;;;;;5.77;1.70;;;3.10;99.90;;;;;;5034856;28;20033;-92
2023/03/11 09:02:31;;;;;;;2.13;1.30;;;3.10;99.90;;;;;;5028593;28;20029;-91
2023/03/11 09:04:57;;;;;;;2.10;1.23;;;3.20;99.90;;;;;;5028061;28;20063;-93
2023/03/11 09:07:22;;;;;;;2.17;1.20;;;3.40;99.90;;;;;;5029339;28;20010;-91
2023/03/11 09:09:51;;;;;;;3.70;1.30;;;3.60;99.90;;;;;;5024817;28;20030;-91
2023/03/11 09:12:20;;;;;;;4.80;1.10;;;3.70;99.90;;;;;;5035180;28;20077;-92
2023/03/11 09:14:46;;;;;;;2.13;1.00;;;3.90;99.90;;;;;;5020625;28;20041;-90
2023/03/11 09:17:13;;;;;;;1.73;1.10;;;4.00;99.90;;;;;;5022575;28;20029;-92
2023/03/11 09:19:39;;;;;;;3.60;1.20;;;4.20;99.90;;;;;;5014398;28;20029;-91
2023/03/11 09:22:05;;;;;;;1.83;1.07;;;4.30;99.90;;;;;;5012114;28;20175;-90
2023/03/11 09:24:34;;;;;;;5.23;1.20;;;4.20;99.90;;;;;;5013455;28;20565;-88
2023/03/11 09:27:00;;;;;;;3.97;1.13;;;4.10;99.90;;;;;;5013357;28;20033;-90
2023/03/11 09:29:26;;;;;;;2.27;1.13;;;4.10;99.90;;;;;;5009362;28;20102;-89
2023/03/11 09:31:52;;;;;;;3.57;1.03;;;4.30;99.90;;;;;;5012154;28;20034;-91
2023/03/11 09:34:18;;;;;;;2.97;1.10;;;4.40;99.90;;;;;;5011987;28;20100;-90
2023/03/11 09:36:45;;;;;;;3.20;1.20;;;4.60;99.90;;;;;;5013441;28;20037;-90
2023/03/11 09:39:11;;;;;;;1.50;0.80;;;4.70;99.90;;;;;;5013697;28;20437;-93
2023/03/11 09:41:48;;;;;;;3.13;1.10;;;4.80;99.90;;;;;;5011833;28;20032;-92
2023/03/11 09:44:23;;;;;;;2.57;1.30;;;4.80;99.90;;;;;;5010404;28;20034;-92
2023/03/11 09:47:11;;;;;;;4.25;1.27;;;4.60;99.90;;;;;;5013388;28;20034;-92
2023/03/11 09:49:42;;;;;;;3.07;1.07;;;4.40;99.90;;;;;;5010014;28;20041;-93
2023/03/11 09:52:14;;;;;;;2.97;1.10;;;4.30;99.90;;;;;;5014301;28;21603;-92
2023/03/11 09:54:52;;;;;;;3.77;1.30;;;4.40;99.90;;;;;;5011753;28;20033;-91
2023/03/11 09:57:24;;;;;;;2.57;1.23;;;4.20;99.90;;;;;;5014812;28;20108;-92
2023/03/11 09:59:54;;;;;;;1.40;1.00;;;4.20;99.90;;;;;;5014325;28;20036;-85
2023/03/11 10:02:25;;;;;;;3.73;1.10;;;4.40;99.90;;;;;;5010959;28;20075;-87
2023/03/11 10:05:02;;;;;;;3.77;0.87;;;4.50;99.90;;;;;;5012812;28;20042;-89
2023/03/11 10:07:40;;;;;;;3.40;1.00;;;4.70;99.90;;;;;;5011994;28;20032;-92
2023/03/11 10:10:10;;;;;;;3.00;1.07;;;4.70;99.90;;;;;;5010674;28;20124;-90
2023/03/11 10:12:46;;;;;;;1.87;0.70;;;4.70;99.90;;;;;;5026303;28;20513;-87
2023/03/11 10:15:22;;;;;;;2.80;1.10;;;4.60;99.90;;;;;;5014536;28;20025;-86
2023/03/11 10:18:25;;;;;;;2.97;0.90;;;4.40;99.90;;;;;;5014268;28;20022;-82
2023/03/11 10:20:56;;;;;;;4.93;1.07;;;4.40;99.90;;;;;;5014138;28;20072;-78
2023/03/11 10:23:43;;;;;;;3.17;1.07;;;4.50;99.90;;;;;;5015065;28;20041;-78
2023/03/11 10:26:30;;;;;;;2.87;1.00;;;4.60;99.90;;;;;;5015320;28;20026;-90
2023/03/11 10:29:20;;;;;;;2.67;1.00;;;4.60;99.90;;;;;;5013045;28;20040;-84
2023/03/11 10:31:50;;;;;;;3.23;0.90;;;4.70;99.90;;;;;;5012121;28;20143;-88
2023/03/11 10:34:50;;;;;;;4.07;1.20;;;5.00;99.90;;;;;;5012739;28;20025;-88
2023/03/11 10:37:38;;;;;;;1.90;1.10;;;5.30;99.90;;;;;;5010781;28;20048;-81
2023/03/11 10:40:28;;;;;;;2.27;1.10;;;5.50;99.90;;;;;;5013186;28;20037;-81
2023/03/11 10:42:59;;;;;;;2.87;1.27;;;5.80;99.90;;;;;;5012453;28;20042;-83
2023/03/11 10:45:28;;;;;;;1.67;1.10;;;6.10;99.90;;;;;;5013670;28;20716;-84
2023/03/11 10:47:56;;;;;;;1.70;1.10;;;6.20;99.90;;;;;;5012365;28;20033;-80
2023/03/11 10:50:22;;;;;;;3.57;1.30;;;6.20;99.90;;;;;;5019264;28;20156;-86
2023/03/11 10:53:09;;;;;;;3.90;1.37;;;6.60;99.90;;;;;;5014432;28;20120;-84
2023/03/11 10:55:45;;;;;;;2.23;1.10;;;6.90;99.90;;;;;;5014487;28;20124;-84
2023/03/11 10:58:17;;;;;;;3.60;1.20;;;6.90;99.90;;;;;;5017820;28;20455;-83
2023/03/11 11:00:42;;;;;;;2.10;1.20;;;6.60;99.90;;;;;;5017069;28;20359;-83
2023/03/11 11:03:24;;;;;;;3.90;1.80;;;6.20;99.90;;;;;;5027652;28;20084;-85
2023/03/11 11:06:05;;;;;;;2.50;1.10;;;5.80;99.90;;;;;;5026932;28;20057;-85
2023/03/11 11:08:33;;;;;;;3.17;1.03;;;5.50;99.90;;;;;;5025116;28;20037;-84
2023/03/11 11:11:05;;;;;;;2.30;1.23;;;5.50;99.90;;;;;;5017645;28;20037;-85
2023/03/11 11:13:35;;;;;;;3.00;1.10;;;5.60;99.90;;;;;;5017059;28;21424;-89
2023/03/11 11:16:24;;;;;;;2.97;1.10;;;5.70;99.90;;;;;;5015588;28;20108;-83
2023/03/11 11:19:12;;;;;;;2.47;1.00;;;5.80;99.90;;;;;;5010843;28;20033;-85
2023/03/11 11:21:51;;;;;;;2.50;1.63;;;5.90;99.90;;;;;;5014061;28;20034;-84
2023/03/11 11:24:25;;;;;;;2.63;1.00;;;5.80;99.90;;;;;;5011794;28;20167;-84
2023/03/11 11:27:13;;;;;;;2.33;1.08;;;5.80;99.90;;;;;;5017015;28;20028;-83
2023/03/11 11:29:38;;;;;;;2.43;1.27;;;5.60;99.90;;;;;;5019408;28;20658;-83
2023/03/11 11:32:24;;;;;;;3.10;1.07;;;5.50;99.90;;;;;;5017643;28;20032;-85
2023/03/11 11:35:18;;;;;;;3.50;1.10;;;5.30;99.90;;;;;;5018521;28;20038;-84
2023/03/11 11:37:50;;;;;;;3.77;1.00;;;5.10;99.90;;;;;;5012040;28;20040;-85
2023/03/11 11:40:15;;;;;;;2.40;1.10;;;5.20;99.90;;;;;;5016457;28;20030;-88
2023/03/11 11:42:56;;;;;;;2.70;1.00;;;5.40;99.90;;;;;;5014371;28;21364;-83
2023/03/11 11:45:44;;;;;;;9.33;1.10;;;5.70;99.90;;;;;;5017632;28;20061;-82
2023/03/11 11:48:25;;;;;;;2.60;1.03;;;6.20;99.90;;;;;;5016517;28;21438;-79
2023/03/11 11:51:15;;;;;;;1.80;1.00;;;6.50;99.90;;;;;;5008894;28;20033;-78
2023/03/11 11:53:47;;;;;;;1.50;1.00;;;6.70;99.90;;;;;;5007449;28;20041;-79
2023/03/11 11:56:13;;;;;;;4.23;1.40;;;6.80;99.90;;;;;;5016057;28;20046;-79
2023/03/11 11:58:40;;;;;;;2.60;1.20;;;6.80;99.90;;;;;;5017295;28;20029;-88
2023/03/11 12:01:37;;;;;;;4.47;1.50;;;6.80;99.90;;;;;;5016852;28;20037;-80
2023/03/11 12:04:31;;;;;;;2.43;1.07;;;7.00;99.90;;;;;;5012299;28;20578;-79
2023/03/11 12:07:25;;;;;;;2.10;1.10;;;7.00;99.90;;;;;;5015780;28;20947;-79
2023/03/11 12:10:16;;;;;;;2.10;1.00;;;6.90;99.90;;;;;;5016073;28;20073;-79
2023/03/11 12:13:04;;;;;;;4.90;1.63;;;7.20;99.90;;;;;;5014282;28;20017;-79
2023/03/11 12:15:42;;;;;;;1.70;1.13;;;7.20;99.90;;;;;;5016315;28;20029;-79
2023/03/11 12:18:34;;;;;;;2.27;1.20;;;6.90;99.90;;;;;;5015550;28;20056;-80
2023/03/11 12:21:05;;;;;;;2.70;1.27;;;6.80;99.90;;;;;;5018729;28;20029;-79
2023/03/11 12:23:59;;;;;;;2.90;1.20;;;7.00;99.90;;;;;;5016545;28;20092;-82
2023/03/11 12:26:27;;;;;;;3.50;1.33;;;7.20;99.90;;;;;;5017058;28;20080;-82
2023/03/11 12:29:00;;;;;;;2.70;1.00;;;7.60;99.90;;;;;;5016502;28;20072;-82
2023/03/11 12:31:30;;;;;;;4.30;1.30;;;7.70;99.90;;;;;;5015753;28;20025;-81
2023/03/11 12:34:01;;;;;;;3.00;1.20;;;7.60;99.90;;;;;;5014520;28;20021;-82
2023/03/11 12:36:36;;;;;;;2.17;1.00;;;7.80;99.90;;;;;;5016016;28;20079;-82
2023/03/11 12:39:07;;;;;;;;;;;7.80;99.90;;;;;;5014966;28;20077;-82
2023/03/11 12:41:41;;;;;;;2.87;1.30;;;7.60;99.90;;;;;;5017027;28;19913;-82
2023/03/11 12:44:30;;;;;;;1.50;1.03;;;7.70;99.90;;;;;;5017488;28;20037;-82
2023/03/11 12:46:58;;;;;;;2.10;0.93;;;7.70;99.90;;;;;;5018435;28;20268;-82
2023/03/11 12:49:29;;;;;;;3.53;1.47;;;7.70;99.90;;;;;;5018984;28;20022;-82
2023/03/11 12:52:10;;;;;;;1.87;1.10;;;7.70;99.90;;;;;;5014468;28;20033;-82
2023/03/11 12:54:41;;;;;;;1.20;0.90;;;7.70;99.90;;;;;;5015339;28;20030;-82
2023/03/11 12:57:16;;;;;;;4.33;1.10;;;7.60;99.90;;;;;;5013217;28;20021;-82
2023/03/11 13:00:23;;;;;;;3.13;1.13;;;7.90;99.90;;;;;;5013701;28;20025;-83
2023/03/11 13:03:23;;;;;;;5.83;1.13;;;7.90;99.90;;;;;;5010786;28;20037;-82
2023/03/11 13:06:26;;;;;;;3.73;1.23;;;8.00;99.80;;;;;;5014143;28;20120;-82
2023/03/11 13:08:57;;;;;;;1.57;0.93;;;8.00;99.90;;;;;;5012684;28;20028;-83
2023/03/11 13:11:35;;;;;;;2.20;1.00;;;8.00;99.90;;;;;;5013103;28;20516;-83
2023/03/11 13:14:31;;;;;;;3.37;1.27;;;7.80;98.60;;;;;;5011390;28;20037;-83
2023/03/11 13:17:29;;;;;;;2.90;1.30;;;7.60;99.90;;;;;;4996451;28;20498;-80
2023/03/11 13:19:56;;;;;;;3.30;1.20;;;7.60;99.90;;;;;;5014965;28;20036;-81
2023/03/11 13:22:54;;;;;;;1.97;1.10;;;7.60;99.90;;;;;;5014325;28;20049;-81
2023/03/11 13:25:38;;;;;;;4.07;1.63;;;7.70;99.90;;;;;;4984519;28;20069;-81
2023/03/11 13:28:19;;;;;;;3.90;1.30;;;7.90;99.90;;;;;;5011686;28;21398;-81
2023/03/11 13:31:11;;;;;;;1.50;1.00;;;8.20;99.90;;;;;;5014464;28;20092;-83